< < Back
Terminal Aerodrome Forecast


Current Version              Previous Versions:   1  2  3  4  5  6  7  8  9  

Terminal Aerodrome Forecast

874
FTUS42 KFFC 221700
TAFPDK
TAF
KPDK 221734Z 2218/2318 31008KT P6SM VCSH SCT040
     FM230100 28003KT P6SM FEW070 SCT250
     FM231500 32006KT P6SM SCT040=

Latest METAR

876
SAUS70 KWBC 221700 RRD
MTRPDK
METAR KPDK 221653Z 30009G16KT 10SM FEW043 32/21 A3012 RMK AO2 SLP179
T03220211


USA.gov is the U.S. government's official web portal to all federal, state and local government web resources and services.